LMML/MLA METAR and TAF weather

Enter ICAO airport designator
Station Type Date Time Source
LMML METAR 2022/11/30 18:15 UTC NOAA

LMML 301815Z 29007KT 9999 FEW021 12/09 Q1009 NOSIG


Station Type Date Time Source
LMML Decoded METAR 2022/11/30 18:15 UTC NOAA

Luqa, Malta (LMML) 35-51N 014-29E 91M
Nov 30, 2022 - 01:15 PM EST / 2022.11.30 1815 UTC
Wind: from the WNW (290 degrees) at 8 MPH (7 KT):0
Visibility: greater than 7 mile(s):0
Sky conditions: mostly clear
Temperature: 53 F (12 C)
Dew Point: 48 F (9 C)
Relative Humidity: 81%
Pressure (altimeter): 29.80 in. Hg (1009 hPa)
ob: LMML 301815Z 29007KT 9999 FEW021 12/09 Q1009 NOSIG
cycle: 18

Station Type Date Time Source
LMML TAF 2022/11/30 12:51 UTC NOAA

TAF LMML 301100Z 3012/0112 30015KT 9999 SCT020TCU
TEMPO 3012/3021 8000 SHRA BKN020TCU

Example: see airport list